createdAt,value
2022-09-17T00:00:49.785Z,9.10
2022-09-17T00:03:34.284Z,9.10
2022-09-17T00:06:30.394Z,9.10
2022-09-17T00:09:08.283Z,9.20
2022-09-17T00:11:56.794Z,9.20
2022-09-17T00:14:44.151Z,9.10
2022-09-17T00:17:23.507Z,9.00
2022-09-17T00:20:01.606Z,9.00
2022-09-17T00:22:42.517Z,8.90
2022-09-17T00:25:24.899Z,8.90
2022-09-17T00:28:01.631Z,8.90
2022-09-17T00:30:37.799Z,8.90
2022-09-17T00:33:11.655Z,8.90
2022-09-17T00:35:51.013Z,8.90
2022-09-17T00:38:30.453Z,9.00
2022-09-17T00:41:16.914Z,8.90
2022-09-17T00:43:53.535Z,8.90
2022-09-17T00:46:38.442Z,8.90
2022-09-17T00:49:19.690Z,8.90
2022-09-17T00:52:00.164Z,8.90
2022-09-17T00:54:34.228Z,9.00
2022-09-17T00:57:20.276Z,9.10
2022-09-17T00:59:59.960Z,9.00
2022-09-17T01:02:34.162Z,8.90
2022-09-17T01:05:08.168Z,8.80
2022-09-17T01:07:54.329Z,8.80
2022-09-17T01:10:43.956Z,8.80
2022-09-17T01:13:44.884Z,8.80
2022-09-17T01:16:41.861Z,8.70
2022-09-17T01:19:50.788Z,8.70
2022-09-17T01:22:36.023Z,8.60
2022-09-17T01:25:39.419Z,8.60
2022-09-17T01:28:48.936Z,8.70
2022-09-17T01:31:57.191Z,8.80
2022-09-17T01:34:40.282Z,8.70
2022-09-17T01:37:27.718Z,8.70
2022-09-17T01:40:21.089Z,8.70
2022-09-17T01:43:03.881Z,8.60
2022-09-17T01:45:44.174Z,8.60
2022-09-17T01:48:20.188Z,8.50
2022-09-17T01:51:19.885Z,8.60
2022-09-17T01:54:02.612Z,8.60
2022-09-17T01:56:47.357Z,8.50
2022-09-17T01:59:27.621Z,8.50
2022-09-17T02:02:20.942Z,8.50
2022-09-17T02:05:11.535Z,8.50
2022-09-17T02:07:58.126Z,8.50
2022-09-17T02:10:39.123Z,8.50
2022-09-17T02:13:23.945Z,8.60
2022-09-17T02:16:05.655Z,8.60
2022-09-17T02:18:49.269Z,8.50
2022-09-17T02:21:42.856Z,8.50
2022-09-17T02:24:30.942Z,8.60
2022-09-17T02:27:10.939Z,8.90
2022-09-17T02:29:49.833Z,9.10
2022-09-17T02:32:31.294Z,9.20
2022-09-17T02:35:15.314Z,9.30
2022-09-17T02:38:04.882Z,9.30
2022-09-17T02:40:53.027Z,9.40
2022-09-17T02:43:38.683Z,9.40
2022-09-17T02:46:37.411Z,9.40
2022-09-17T02:49:43.616Z,9.40
2022-09-17T02:52:35.506Z,9.50
2022-09-17T02:55:20.513Z,9.50
2022-09-17T02:58:10.721Z,9.60
2022-09-17T03:00:43.654Z,9.50
2022-09-17T03:03:21.767Z,9.50
2022-09-17T03:06:02.540Z,9.60
2022-09-17T03:08:38.758Z,9.60
2022-09-17T03:11:39.781Z,9.50
2022-09-17T03:14:17.713Z,9.60
2022-09-17T03:17:04.265Z,9.50
2022-09-17T03:19:38.814Z,9.60
2022-09-17T03:22:15.455Z,9.60
2022-09-17T03:24:47.784Z,9.60
2022-09-17T03:27:22.293Z,9.60
2022-09-17T03:30:00.493Z,9.60
2022-09-17T03:32:38.492Z,9.60
2022-09-17T03:35:27.843Z,9.60
2022-09-17T03:38:06.004Z,9.60
2022-09-17T03:40:38.221Z,9.60
2022-09-17T03:43:21.994Z,9.60
2022-09-17T03:46:07.194Z,9.60
2022-09-17T03:48:51.622Z,9.70
2022-09-17T03:51:29.799Z,9.70
2022-09-17T03:54:06.259Z,9.70
2022-09-17T03:56:48.426Z,9.60
2022-09-17T03:59:24.473Z,9.60
2022-09-17T04:02:13.811Z,9.60
2022-09-17T04:04:52.469Z,9.60
2022-09-17T04:07:39.567Z,9.60
2022-09-17T04:10:27.762Z,9.60
2022-09-17T04:18:46.743Z,9.70
2022-09-17T04:21:21.597Z,9.70
2022-09-17T04:23:55.767Z,9.70
2022-09-17T04:26:35.218Z,9.70
2022-09-17T04:29:12.693Z,9.90
2022-09-17T04:32:04.097Z,9.90
2022-09-17T04:34:40.977Z,9.90
2022-09-17T04:37:23.171Z,9.90
2022-09-17T04:40:07.936Z,9.90
2022-09-17T04:42:45.151Z,9.90
2022-09-17T04:45:21.162Z,9.80
2022-09-17T04:48:02.645Z,9.80
2022-09-17T04:50:40.111Z,9.80
2022-09-17T04:53:17.768Z,9.80
2022-09-17T04:55:53.703Z,9.80
2022-09-17T04:58:35.307Z,9.80
2022-09-17T05:01:11.159Z,9.80
2022-09-17T05:03:51.536Z,9.80
2022-09-17T05:06:24.052Z,9.80
2022-09-17T05:09:01.898Z,9.80
2022-09-17T05:11:37.779Z,9.90
2022-09-17T05:14:18.216Z,9.80
2022-09-17T05:16:53.959Z,9.80
2022-09-17T05:19:32.149Z,9.80
2022-09-17T05:22:07.505Z,9.80
2022-09-17T05:24:46.984Z,9.70
2022-09-17T05:27:25.612Z,9.70
2022-09-17T05:30:04.051Z,9.70
2022-09-17T05:32:44.216Z,9.70
2022-09-17T05:35:22.850Z,9.70
2022-09-17T05:38:06.216Z,9.80
2022-09-17T05:40:50.044Z,9.80
2022-09-17T05:43:46.470Z,9.60
2022-09-17T05:46:33.859Z,9.50
2022-09-17T05:49:55.173Z,9.30
2022-09-17T05:55:34.466Z,9.00
2022-09-17T05:58:50.267Z,9.00
2022-09-17T06:01:26.532Z,9.00
2022-09-17T06:04:08.547Z,9.00
2022-09-17T06:07:02.614Z,8.90
2022-09-17T06:10:02.645Z,8.80
2022-09-17T06:15:37.496Z,8.80
2022-09-17T06:18:12.593Z,8.80
2022-09-17T06:21:40.423Z,8.80
2022-09-17T06:24:15.553Z,8.90
2022-09-17T06:26:51.727Z,8.90
2022-09-17T06:29:29.097Z,9.00
2022-09-17T06:32:20.161Z,9.10
2022-09-17T06:34:56.590Z,9.10
2022-09-17T06:37:54.199Z,9.10
2022-09-17T06:40:53.562Z,9.10
2022-09-17T06:43:33.832Z,9.10
2022-09-17T06:46:25.497Z,9.10
2022-09-17T06:49:01.702Z,9.10
2022-09-17T06:51:47.421Z,9.10
2022-09-17T06:54:27.261Z,9.10
2022-09-17T06:57:03.267Z,9.00
2022-09-17T06:59:41.347Z,9.00
2022-09-17T07:02:19.221Z,9.00
2022-09-17T07:04:58.305Z,9.00
2022-09-17T07:07:35.583Z,9.00
2022-09-17T07:10:07.392Z,9.10
2022-09-17T07:12:49.171Z,9.10
2022-09-17T07:15:28.384Z,9.10
2022-09-17T07:18:18.868Z,9.20
2022-09-17T07:21:08.459Z,9.10
2022-09-17T07:23:49.018Z,9.10
2022-09-17T07:26:23.098Z,9.10
2022-09-17T07:29:05.697Z,9.20
2022-09-17T07:31:42.314Z,9.20
2022-09-17T07:34:16.167Z,9.30
2022-09-17T07:36:48.330Z,9.20
2022-09-17T07:39:21.490Z,9.30
2022-09-17T07:41:54.649Z,9.30
2022-09-17T07:44:30.733Z,9.30
2022-09-17T07:47:05.237Z,9.30
2022-09-17T07:49:41.241Z,9.30
2022-09-17T07:52:19.208Z,9.40
2022-09-17T07:55:11.205Z,9.40
2022-09-17T07:57:47.174Z,9.40
2022-09-17T08:00:23.524Z,9.40
2022-09-17T08:03:05.620Z,9.40
2022-09-17T08:05:46.675Z,9.50
2022-09-17T08:08:26.329Z,9.50
2022-09-17T08:11:03.947Z,9.50
2022-09-17T08:13:42.512Z,9.60
2022-09-17T08:16:21.346Z,9.50
2022-09-17T08:19:05.438Z,9.60
2022-09-17T08:21:42.042Z,9.60
2022-09-17T08:24:20.525Z,9.70
2022-09-17T08:27:02.048Z,9.80
2022-09-17T08:29:43.215Z,9.80
2022-09-17T08:32:18.821Z,9.80
2022-09-17T08:35:01.305Z,9.80
2022-09-17T08:37:38.493Z,9.80
2022-09-17T08:40:25.342Z,9.90
2022-09-17T08:43:05.963Z,10.00
2022-09-17T08:45:40.131Z,10.10
2022-09-17T08:48:21.369Z,10.10
2022-09-17T08:51:08.412Z,10.10
2022-09-17T08:53:52.196Z,10.10
2022-09-17T08:56:37.144Z,10.10
2022-09-17T08:59:25.840Z,10.30
2022-09-17T09:02:13.300Z,10.40
2022-09-17T09:05:01.237Z,10.60
2022-09-17T09:07:46.035Z,10.90
2022-09-17T09:10:28.567Z,10.90
2022-09-17T09:13:02.202Z,11.30
2022-09-17T09:15:45.517Z,11.50
2022-09-17T09:18:25.942Z,11.70
2022-09-17T09:21:03.500Z,12.00
2022-09-17T09:23:50.540Z,12.40
2022-09-17T09:26:36.305Z,12.20
2022-09-17T09:29:25.134Z,12.10
2022-09-17T09:32:16.509Z,12.20
2022-09-17T09:34:49.998Z,12.20
2022-09-17T09:37:26.055Z,12.30
2022-09-17T09:40:03.213Z,12.30
2022-09-17T09:42:38.158Z,12.20
2022-09-17T09:45:36.098Z,12.00
2022-09-17T09:48:16.038Z,12.00
2022-09-17T09:51:06.227Z,12.00
2022-09-17T09:53:52.363Z,12.30
2022-09-17T09:56:47.947Z,12.50
2022-09-17T09:59:25.296Z,12.50
2022-09-17T10:01:55.271Z,12.40
2022-09-17T10:04:32.791Z,12.60
2022-09-17T10:07:08.214Z,12.60
2022-09-17T10:09:51.124Z,12.60
2022-09-17T10:12:26.186Z,12.70
2022-09-17T10:15:31.557Z,12.70
2022-09-17T10:18:19.839Z,12.90
2022-09-17T10:20:58.975Z,13.10
2022-09-17T10:23:35.813Z,13.10
2022-09-17T10:26:08.854Z,13.00
2022-09-17T10:28:53.973Z,12.80
2022-09-17T10:31:26.579Z,13.30
2022-09-17T10:34:08.833Z,13.40
2022-09-17T10:36:44.492Z,13.40
2022-09-17T10:39:46.085Z,13.50
2022-09-17T10:42:22.746Z,13.30
2022-09-17T10:45:00.365Z,13.60
2022-09-17T10:47:41.034Z,13.90
2022-09-17T10:50:30.465Z,13.70
2022-09-17T10:53:07.281Z,13.70
2022-09-17T10:55:41.350Z,13.50
2022-09-17T10:58:38.059Z,13.70
2022-09-17T11:01:28.671Z,13.70
2022-09-17T11:04:25.121Z,14.00
2022-09-17T11:07:25.553Z,14.40
2022-09-17T11:10:26.509Z,14.60
2022-09-17T11:13:16.216Z,14.60
2022-09-17T11:16:03.104Z,14.80
2022-09-17T11:18:52.619Z,15.20
2022-09-17T11:22:01.078Z,15.20
2022-09-17T11:25:04.656Z,15.70
2022-09-17T11:28:06.140Z,15.50
2022-09-17T11:30:46.612Z,15.50
2022-09-17T11:33:52.901Z,15.40
2022-09-17T11:36:29.172Z,15.40
2022-09-17T11:39:10.524Z,15.30
2022-09-17T11:41:59.511Z,15.60
2022-09-17T11:44:42.505Z,15.00
2022-09-17T11:47:19.354Z,14.80
2022-09-17T11:50:01.477Z,14.70
2022-09-17T11:52:41.275Z,14.40
2022-09-17T11:55:31.561Z,15.10
2022-09-17T11:58:12.558Z,15.00
2022-09-17T12:00:54.045Z,15.10
2022-09-17T12:03:33.272Z,16.00
2022-09-17T12:06:12.165Z,16.10
2022-09-17T12:08:55.876Z,16.20
2022-09-17T12:11:34.969Z,15.70
2022-09-17T12:14:26.852Z,14.90
2022-09-17T12:17:10.346Z,14.20
2022-09-17T12:19:50.688Z,13.40
2022-09-17T12:22:27.837Z,13.10
2022-09-17T12:25:08.811Z,13.00
2022-09-17T12:27:53.936Z,12.70
2022-09-17T12:30:47.941Z,12.40
2022-09-17T12:33:34.120Z,12.20
2022-09-17T12:36:33.592Z,12.10
2022-09-17T12:39:42.063Z,12.40
2022-09-17T12:42:28.640Z,12.70
2022-09-17T12:45:14.319Z,13.00
2022-09-17T12:48:09.769Z,13.40
2022-09-17T12:50:54.298Z,13.60
2022-09-17T12:53:41.075Z,13.50
2022-09-17T12:56:44.775Z,13.10
2022-09-17T12:59:32.453Z,13.00
2022-09-17T13:02:19.474Z,12.70
2022-09-17T13:05:24.177Z,12.70
2022-09-17T13:08:46.571Z,12.90
2022-09-17T13:11:50.539Z,13.30
2022-09-17T13:14:36.584Z,13.60
2022-09-17T13:17:15.413Z,13.70
2022-09-17T13:20:03.269Z,13.70
2022-09-17T13:22:48.439Z,13.70
2022-09-17T13:25:25.549Z,13.90
2022-09-17T13:28:10.034Z,13.80
2022-09-17T13:31:05.180Z,13.90
2022-09-17T13:34:03.883Z,13.60
2022-09-17T13:36:54.477Z,12.40
2022-09-17T13:39:51.103Z,9.40
2022-09-17T13:42:29.824Z,8.30
2022-09-17T13:45:13.369Z,8.10
2022-09-17T13:48:03.181Z,8.10
2022-09-17T13:50:42.235Z,8.10
2022-09-17T13:53:23.295Z,8.10
2022-09-17T13:56:05.275Z,8.20
2022-09-17T13:58:40.683Z,8.30
2022-09-17T14:01:39.025Z,8.50
2022-09-17T14:07:52.975Z,8.80
2022-09-17T14:10:51.911Z,8.60
2022-09-17T14:13:43.654Z,8.60
2022-09-17T14:16:54.470Z,8.60
2022-09-17T14:19:51.329Z,9.00
2022-09-17T14:22:30.631Z,9.30
2022-09-17T14:25:05.460Z,9.60
2022-09-17T14:28:04.086Z,9.70
2022-09-17T14:30:39.120Z,9.90
2022-09-17T14:33:19.380Z,10.10
2022-09-17T14:35:55.649Z,10.10
2022-09-17T14:38:30.523Z,10.10
2022-09-17T14:41:07.883Z,9.90
2022-09-17T14:43:47.536Z,9.80
2022-09-17T14:46:25.920Z,10.00
2022-09-17T14:49:20.523Z,10.20
2022-09-17T14:51:52.517Z,10.10
2022-09-17T14:54:36.232Z,10.30
2022-09-17T14:57:22.948Z,10.50
2022-09-17T15:00:05.716Z,10.50
2022-09-17T15:02:46.242Z,10.60
2022-09-17T15:05:27.887Z,10.80
2022-09-17T15:08:33.052Z,11.00
2022-09-17T15:11:06.567Z,11.10
2022-09-17T15:13:50.066Z,11.20
2022-09-17T15:16:40.141Z,11.30
2022-09-17T15:19:19.089Z,11.40
2022-09-17T15:21:53.705Z,11.60
2022-09-17T15:24:35.569Z,11.70
2022-09-17T15:27:22.325Z,11.70
2022-09-17T15:29:58.797Z,11.80
2022-09-17T15:32:48.293Z,11.90
2022-09-17T15:35:34.426Z,12.10
2022-09-17T15:38:24.866Z,12.10
2022-09-17T15:41:20.956Z,12.20
2022-09-17T15:44:13.283Z,12.40
2022-09-17T15:46:55.155Z,12.70
2022-09-17T15:50:16.937Z,12.80
2022-09-17T15:52:50.603Z,12.80
2022-09-17T15:55:41.596Z,12.80
2022-09-17T15:58:27.770Z,12.80
2022-09-17T16:01:41.791Z,12.90
2022-09-17T16:04:22.773Z,12.80
2022-09-17T16:07:20.835Z,12.90
2022-09-17T16:09:59.958Z,12.90
2022-09-17T16:12:33.656Z,12.80
2022-09-17T16:15:13.754Z,12.80
2022-09-17T16:17:49.207Z,12.70
2022-09-17T16:20:24.206Z,12.70
2022-09-17T16:22:57.806Z,12.60
2022-09-17T16:25:33.894Z,12.60
2022-09-17T16:28:08.736Z,12.70
2022-09-17T16:30:43.639Z,12.60
2022-09-17T16:33:20.384Z,12.60
2022-09-17T16:35:51.677Z,12.50
2022-09-17T16:38:24.496Z,12.40
2022-09-17T16:40:55.067Z,12.30
2022-09-17T16:43:26.964Z,12.10
2022-09-17T16:46:04.425Z,12.10
2022-09-17T16:48:37.333Z,12.20
2022-09-17T16:51:09.962Z,12.30
2022-09-17T16:53:45.115Z,12.40
2022-09-17T16:56:19.402Z,12.40
2022-09-17T16:58:58.095Z,12.40
2022-09-17T17:01:34.219Z,12.20
2022-09-17T17:04:14.335Z,11.40
2022-09-17T17:06:49.044Z,10.50
2022-09-17T17:09:19.832Z,9.80
2022-09-17T17:11:48.812Z,9.50
2022-09-17T17:14:19.388Z,9.40
2022-09-17T17:16:49.721Z,9.40
2022-09-17T17:19:21.045Z,9.40
2022-09-17T17:21:53.783Z,9.40
2022-09-17T17:24:27.148Z,9.50
2022-09-17T17:27:01.388Z,9.50
2022-09-17T17:29:34.579Z,9.50
2022-09-17T17:32:05.522Z,9.60
2022-09-17T17:34:35.267Z,9.60
2022-09-17T17:37:06.550Z,9.50
2022-09-17T17:39:40.776Z,9.50
2022-09-17T17:42:11.887Z,9.40
2022-09-17T17:44:42.252Z,9.30
2022-09-17T17:47:12.448Z,9.20
2022-09-17T17:49:42.123Z,9.10
2022-09-17T17:52:14.010Z,9.00
2022-09-17T17:54:45.685Z,9.00
2022-09-17T17:57:19.574Z,8.90
2022-09-17T17:59:50.677Z,8.80
2022-09-17T18:02:21.573Z,8.80
2022-09-17T18:04:53.443Z,8.80
2022-09-17T18:07:25.787Z,8.90
2022-09-17T18:10:00.549Z,9.00
2022-09-17T18:12:40.585Z,8.90
2022-09-17T18:15:14.997Z,8.80
2022-09-17T18:17:54.039Z,8.70
2022-09-17T18:20:26.534Z,8.60
2022-09-17T18:23:08.752Z,8.60
2022-09-17T18:25:41.938Z,8.50
2022-09-17T18:28:12.453Z,8.40
2022-09-17T18:30:43.437Z,8.40
2022-09-17T18:33:19.342Z,8.40
2022-09-17T18:35:50.841Z,8.40
2022-09-17T18:38:24.433Z,8.30
2022-09-17T18:40:58.188Z,8.30
2022-09-17T18:43:28.401Z,8.30
2022-09-17T18:45:58.672Z,8.30
2022-09-17T18:48:36.641Z,8.20
2022-09-17T18:51:12.113Z,8.20
2022-09-17T18:53:42.432Z,8.20
2022-09-17T18:56:17.517Z,8.20
2022-09-17T18:58:53.136Z,8.20
2022-09-17T19:01:28.537Z,8.20
2022-09-17T19:03:58.992Z,8.20
2022-09-17T19:06:30.004Z,8.30
2022-09-17T19:09:01.454Z,8.30
2022-09-17T19:11:30.928Z,8.30
2022-09-17T19:13:59.173Z,8.30
2022-09-17T19:16:29.725Z,8.30
2022-09-17T19:18:57.795Z,8.30
2022-09-17T19:21:25.888Z,8.20
2022-09-17T19:23:54.713Z,8.20
2022-09-17T19:26:24.391Z,8.20
2022-09-17T19:28:54.954Z,8.20
2022-09-17T19:31:23.082Z,8.20
2022-09-17T19:33:51.640Z,8.20
2022-09-17T19:36:20.804Z,8.20
2022-09-17T19:38:49.292Z,8.20
2022-09-17T19:41:23.299Z,8.30
2022-09-17T19:43:52.446Z,8.30
2022-09-17T19:46:24.070Z,8.30
2022-09-17T19:48:53.972Z,8.30
2022-09-17T19:51:23.697Z,8.30
2022-09-17T19:53:51.841Z,8.40
2022-09-17T19:56:22.108Z,8.50
2022-09-17T19:58:50.390Z,8.50
2022-09-17T20:01:18.840Z,8.50
2022-09-17T20:03:48.613Z,8.40
2022-09-17T20:06:18.720Z,8.40
2022-09-17T20:08:47.397Z,8.40
2022-09-17T20:11:21.642Z,8.40
2022-09-17T20:13:50.313Z,8.50
2022-09-17T20:16:19.652Z,8.50
2022-09-17T20:18:50.196Z,8.50
2022-09-17T20:21:19.602Z,8.50
2022-09-17T20:23:47.693Z,8.50
2022-09-17T20:26:16.606Z,8.50
2022-09-17T20:28:45.067Z,8.50
2022-09-17T20:31:15.296Z,8.50
2022-09-17T20:33:44.246Z,8.50
2022-09-17T20:36:15.245Z,8.60
2022-09-17T20:41:32.582Z,8.50
2022-09-17T20:44:00.573Z,8.50
2022-09-17T20:46:29.845Z,8.40
2022-09-17T20:48:58.711Z,8.40
2022-09-17T20:51:30.111Z,8.40
2022-09-17T20:53:59.067Z,8.40
2022-09-17T20:56:28.638Z,8.40
2022-09-17T20:59:03.947Z,8.30
2022-09-17T21:01:34.464Z,8.30
2022-09-17T21:04:03.654Z,8.30
2022-09-17T21:06:34.283Z,8.20
2022-09-17T21:09:03.285Z,8.20
2022-09-17T21:11:33.913Z,8.30
2022-09-17T21:14:02.223Z,8.30
2022-09-17T21:16:30.768Z,8.20
2022-09-17T21:19:01.494Z,8.20
2022-09-17T21:21:30.317Z,8.20
2022-09-17T21:24:02.233Z,8.10
2022-09-17T21:26:30.260Z,8.20
2022-09-17T21:28:58.840Z,8.20
2022-09-17T21:31:32.126Z,8.20
2022-09-17T21:34:02.407Z,8.20
2022-09-17T21:36:33.620Z,8.20
2022-09-17T21:39:04.932Z,8.10
2022-09-17T21:41:39.918Z,8.00
2022-09-17T21:44:13.580Z,8.00
2022-09-17T21:46:43.476Z,8.10
2022-09-17T21:49:13.285Z,8.20
2022-09-17T21:51:42.830Z,8.30
2022-09-17T21:54:15.286Z,8.30
2022-09-17T21:56:43.318Z,8.40
2022-09-17T21:59:16.080Z,8.40
2022-09-17T22:01:46.851Z,8.60
2022-09-17T22:04:16.716Z,8.60
2022-09-17T22:06:45.596Z,8.80
2022-09-17T22:09:18.011Z,8.90
2022-09-17T22:11:46.491Z,8.90
2022-09-17T22:14:17.861Z,8.90
2022-09-17T22:16:47.700Z,8.90
2022-09-17T22:19:17.888Z,8.90
2022-09-17T22:21:48.035Z,8.90
2022-09-17T22:24:17.950Z,8.90
2022-09-17T22:26:50.779Z,9.00
2022-09-17T22:29:23.733Z,9.00
2022-09-17T22:31:51.756Z,9.00
2022-09-17T22:34:21.647Z,9.00
2022-09-17T22:36:49.933Z,9.00
2022-09-17T22:39:21.563Z,9.00
2022-09-17T22:41:50.145Z,9.00
2022-09-17T22:44:21.799Z,9.00
2022-09-17T22:46:51.600Z,9.00
2022-09-17T22:49:20.895Z,8.90
2022-09-17T22:51:49.043Z,8.90
2022-09-17T22:54:19.576Z,8.90
2022-09-17T22:56:48.582Z,8.90
2022-09-17T22:59:17.983Z,8.90
2022-09-17T23:01:46.140Z,8.80
2022-09-17T23:04:14.208Z,8.70
2022-09-17T23:06:44.785Z,8.60
2022-09-17T23:09:14.565Z,8.50
2022-09-17T23:11:49.704Z,8.50
2022-09-17T23:14:29.635Z,8.60
2022-09-17T23:17:03.547Z,8.50
2022-09-17T23:19:36.023Z,8.50
2022-09-17T23:22:20.499Z,8.50
2022-09-17T23:24:54.621Z,8.50
2022-09-17T23:27:33.114Z,8.50
2022-09-17T23:30:08.505Z,8.50
2022-09-17T23:32:43.747Z,8.40
2022-09-17T23:35:15.775Z,8.30
2022-09-17T23:37:53.846Z,8.20
2022-09-17T23:40:28.506Z,8.30
2022-09-17T23:42:58.149Z,8.30
2022-09-17T23:45:26.195Z,8.30
2022-09-17T23:47:54.190Z,8.30
2022-09-17T23:50:22.336Z,8.30
2022-09-17T23:52:50.304Z,8.20
2022-09-17T23:55:18.432Z,8.30
2022-09-17T23:57:46.508Z,8.40
